createdAt,value
2018-03-27T00:02:16.052Z,5.10
2018-03-27T00:04:43.589Z,5.10
2018-03-27T00:07:11.887Z,5.10
2018-03-27T00:09:39.439Z,5.10
2018-03-27T00:12:06.994Z,5.20
2018-03-27T00:14:34.543Z,5.10
2018-03-27T00:17:02.862Z,5.20
2018-03-27T00:19:30.425Z,5.20
2018-03-27T00:21:57.961Z,5.30
2018-03-27T00:24:25.521Z,5.40
2018-03-27T00:27:00.544Z,5.40
2018-03-27T00:29:39.848Z,5.40
2018-03-27T00:32:19.188Z,5.30
2018-03-27T00:34:58.514Z,5.30
2018-03-27T00:37:38.003Z,5.20
2018-03-27T00:40:17.290Z,5.20
2018-03-27T00:42:54.618Z,5.20
2018-03-27T00:45:22.166Z,5.20
2018-03-27T00:47:50.488Z,5.20
2018-03-27T00:50:18.047Z,5.20
2018-03-27T00:52:45.621Z,5.20
2018-03-27T00:55:13.174Z,5.10
2018-03-27T00:57:40.737Z,5.10
2018-03-27T01:00:08.276Z,5.00
2018-03-27T01:02:35.825Z,5.00
2018-03-27T01:05:09.132Z,5.00
2018-03-27T01:07:36.702Z,5.00
2018-03-27T01:10:04.229Z,5.10
2018-03-27T01:12:31.788Z,5.10
2018-03-27T01:14:59.352Z,5.20
2018-03-27T01:17:26.913Z,5.20
2018-03-27T01:19:54.459Z,5.30
2018-03-27T01:22:21.990Z,5.30
2018-03-27T01:24:50.316Z,5.20
2018-03-27T01:27:17.859Z,5.20
2018-03-27T01:29:45.437Z,5.20
2018-03-27T01:32:13.001Z,5.20
2018-03-27T01:34:40.553Z,5.30
2018-03-27T01:37:08.105Z,5.30
2018-03-27T01:39:35.661Z,5.20
2018-03-27T01:42:03.223Z,5.10
2018-03-27T01:44:30.760Z,5.20
2018-03-27T01:46:59.085Z,5.20
2018-03-27T01:49:27.428Z,5.10
2018-03-27T01:51:54.981Z,5.10
2018-03-27T01:54:22.542Z,5.20
2018-03-27T01:56:50.093Z,5.10
2018-03-27T01:59:18.417Z,5.00
2018-03-27T02:01:45.972Z,4.90
2018-03-27T02:04:13.526Z,4.80
2018-03-27T02:06:41.087Z,4.80
2018-03-27T02:09:08.687Z,4.90
2018-03-27T02:11:41.833Z,4.80
2018-03-27T02:14:14.970Z,4.80
2018-03-27T02:16:48.232Z,4.80
2018-03-27T02:19:21.573Z,4.80
2018-03-27T02:21:49.433Z,4.80
2018-03-27T02:24:18.354Z,4.70
2018-03-27T02:26:45.905Z,4.70
2018-03-27T02:29:13.470Z,4.70
2018-03-27T02:31:41.018Z,4.70
2018-03-27T02:34:08.586Z,4.60
2018-03-27T02:36:36.151Z,4.60
2018-03-27T02:39:03.702Z,4.60
2018-03-27T02:41:31.265Z,4.50
2018-03-27T02:43:58.828Z,4.30
2018-03-27T02:46:26.384Z,4.30
2018-03-27T02:48:53.941Z,4.30
2018-03-27T02:51:21.509Z,4.40
2018-03-27T02:53:49.045Z,4.40
2018-03-27T02:56:17.408Z,4.40
2018-03-27T02:58:45.729Z,4.40
2018-03-27T03:01:13.257Z,4.40
2018-03-27T03:03:41.566Z,4.00
2018-03-27T03:06:09.107Z,4.00
2018-03-27T03:08:36.666Z,3.90
2018-03-27T03:11:04.213Z,3.90
2018-03-27T03:13:32.539Z,3.90
2018-03-27T03:16:00.080Z,3.90
2018-03-27T03:18:27.667Z,4.00
2018-03-27T03:20:55.233Z,4.00
2018-03-27T03:23:22.794Z,4.10
2018-03-27T03:25:50.340Z,4.20
2018-03-27T03:28:17.923Z,4.20
2018-03-27T03:30:46.245Z,4.30
2018-03-27T03:33:13.775Z,4.30
2018-03-27T03:35:42.101Z,4.40
2018-03-27T03:38:09.635Z,4.30
2018-03-27T03:40:37.214Z,4.30
2018-03-27T03:43:04.780Z,4.40
2018-03-27T03:45:32.313Z,4.30
2018-03-27T03:47:59.872Z,4.30
2018-03-27T03:50:27.396Z,4.30
2018-03-27T03:52:54.959Z,4.30
2018-03-27T03:55:23.275Z,4.20
2018-03-27T03:57:50.844Z,4.20
2018-03-27T04:00:18.372Z,4.10
2018-03-27T04:02:45.936Z,4.10
2018-03-27T04:05:14.255Z,4.10
2018-03-27T04:07:41.799Z,4.00
2018-03-27T04:10:09.365Z,4.00
2018-03-27T04:12:36.917Z,3.90
2018-03-27T04:15:04.472Z,3.80
2018-03-27T04:17:31.994Z,3.80
2018-03-27T04:20:00.318Z,3.70
2018-03-27T04:22:27.858Z,3.70
2018-03-27T04:24:55.411Z,3.70
2018-03-27T04:27:22.972Z,3.70
2018-03-27T04:29:50.509Z,3.60
2018-03-27T04:32:18.834Z,3.40
2018-03-27T04:34:46.388Z,3.40
2018-03-27T04:37:13.937Z,3.40
2018-03-27T04:39:41.497Z,3.50
2018-03-27T04:42:09.062Z,3.50
2018-03-27T04:44:36.649Z,3.50
2018-03-27T04:47:04.209Z,3.60
2018-03-27T04:49:31.755Z,3.60
2018-03-27T04:51:59.320Z,3.60
2018-03-27T04:54:26.874Z,3.60
2018-03-27T04:56:54.441Z,3.50
2018-03-27T04:59:22.000Z,3.50
2018-03-27T05:01:49.555Z,3.50
2018-03-27T05:04:17.101Z,3.50
2018-03-27T05:06:44.635Z,3.50
2018-03-27T05:09:12.181Z,3.60
2018-03-27T05:11:40.507Z,3.60
2018-03-27T05:14:08.055Z,3.50
2018-03-27T05:16:35.634Z,3.60
2018-03-27T05:19:03.158Z,3.70
2018-03-27T05:21:30.745Z,3.70
2018-03-27T05:23:59.047Z,3.80
2018-03-27T05:26:26.624Z,3.80
2018-03-27T05:28:54.200Z,3.70
2018-03-27T05:31:21.773Z,3.70
2018-03-27T05:33:49.331Z,3.80
2018-03-27T05:36:16.896Z,3.80
2018-03-27T05:38:44.472Z,3.80
2018-03-27T05:41:12.004Z,3.90
2018-03-27T05:43:39.564Z,4.00
2018-03-27T05:46:07.142Z,4.00
2018-03-27T05:48:34.684Z,4.10
2018-03-27T05:51:02.233Z,4.20
2018-03-27T05:53:30.565Z,4.20
2018-03-27T05:55:58.392Z,4.20
2018-03-27T05:58:25.887Z,4.30
2018-03-27T06:00:53.462Z,4.30
2018-03-27T06:03:21.017Z,4.30
2018-03-27T06:05:48.575Z,4.40
2018-03-27T06:08:16.102Z,4.40
2018-03-27T06:10:43.674Z,4.40
2018-03-27T06:13:11.207Z,4.50
2018-03-27T06:15:38.767Z,4.50
2018-03-27T06:18:06.325Z,4.50
2018-03-27T06:20:33.923Z,4.50
2018-03-27T06:23:01.463Z,4.50
2018-03-27T06:25:28.985Z,4.60
2018-03-27T06:27:57.292Z,4.60
2018-03-27T06:30:24.849Z,4.60
2018-03-27T06:32:52.426Z,4.60
2018-03-27T06:35:19.958Z,4.60
2018-03-27T06:37:47.510Z,4.60
2018-03-27T06:40:15.065Z,4.60
2018-03-27T06:42:42.592Z,4.60
2018-03-27T06:45:10.154Z,4.70
2018-03-27T06:47:38.475Z,4.80
2018-03-27T06:50:06.044Z,4.80
2018-03-27T06:52:33.605Z,4.90
2018-03-27T06:55:01.151Z,5.00
2018-03-27T06:57:28.708Z,5.10
2018-03-27T06:59:57.062Z,5.10
2018-03-27T07:02:25.381Z,5.20
2018-03-27T07:04:52.992Z,5.20
2018-03-27T07:07:20.523Z,5.20
2018-03-27T07:09:48.062Z,5.20
2018-03-27T07:12:15.628Z,5.20
2018-03-27T07:14:43.180Z,5.30
2018-03-27T07:17:10.770Z,5.30
2018-03-27T07:19:39.109Z,5.40
2018-03-27T07:22:06.653Z,5.40
2018-03-27T07:24:34.197Z,5.40
2018-03-27T07:27:01.820Z,5.40
2018-03-27T07:29:29.406Z,5.50
2018-03-27T07:31:57.727Z,5.60
2018-03-27T07:34:25.325Z,5.60
2018-03-27T07:36:52.882Z,5.70
2018-03-27T07:39:20.447Z,5.80
2018-03-27T07:41:48.034Z,5.90
2018-03-27T07:44:15.597Z,6.00
2018-03-27T07:46:43.168Z,6.20
2018-03-27T07:49:10.728Z,6.30
2018-03-27T07:51:38.276Z,6.40
2018-03-27T07:54:05.852Z,6.60
2018-03-27T07:56:34.186Z,6.90
2018-03-27T07:59:02.513Z,7.20
2018-03-27T08:01:30.080Z,7.10
2018-03-27T08:03:57.638Z,7.30
2018-03-27T08:06:25.216Z,7.60
2018-03-27T08:08:52.762Z,7.70
2018-03-27T08:11:20.314Z,8.10
2018-03-27T08:13:47.868Z,8.20
2018-03-27T08:16:15.453Z,8.40
2018-03-27T08:18:42.996Z,8.40
2018-03-27T08:21:10.542Z,8.70
2018-03-27T08:23:38.106Z,8.90
2018-03-27T08:26:05.649Z,9.00
2018-03-27T08:28:33.229Z,9.10
2018-03-27T08:31:00.766Z,9.30
2018-03-27T08:33:28.322Z,9.40
2018-03-27T08:35:55.910Z,9.30
2018-03-27T08:38:23.467Z,9.10
2018-03-27T08:40:51.011Z,9.30
2018-03-27T08:43:18.599Z,9.70
2018-03-27T08:45:46.148Z,9.90
2018-03-27T08:48:13.699Z,10.00
2018-03-27T08:50:41.268Z,10.20
2018-03-27T08:53:08.861Z,10.30
2018-03-27T08:55:36.389Z,10.70
2018-03-27T08:58:03.949Z,10.90
2018-03-27T09:00:31.524Z,11.20
2018-03-27T09:02:59.095Z,11.50
2018-03-27T09:05:26.650Z,11.60
2018-03-27T09:07:54.383Z,11.70
2018-03-27T09:10:21.930Z,11.70
2018-03-27T09:12:49.512Z,11.80
2018-03-27T09:15:17.093Z,11.70
2018-03-27T09:17:44.655Z,11.60
2018-03-27T09:20:12.216Z,11.50
2018-03-27T09:22:39.775Z,11.50
2018-03-27T09:25:07.326Z,11.30
2018-03-27T09:27:34.903Z,11.20
2018-03-27T09:30:02.470Z,11.00
2018-03-27T09:32:30.037Z,10.60
2018-03-27T09:34:58.373Z,10.10
2018-03-27T09:37:25.941Z,10.10
2018-03-27T09:39:53.480Z,9.90
2018-03-27T09:42:21.787Z,9.50
2018-03-27T09:44:49.355Z,9.40
2018-03-27T09:47:16.889Z,9.20
2018-03-27T09:49:44.438Z,9.10
2018-03-27T09:52:11.981Z,8.90
2018-03-27T09:54:39.514Z,8.90
2018-03-27T09:57:07.837Z,9.40
2018-03-27T09:59:35.385Z,9.40
2018-03-27T10:02:02.929Z,9.70
2018-03-27T10:04:30.509Z,9.90
2018-03-27T10:06:58.051Z,10.30
2018-03-27T10:09:25.593Z,10.60
2018-03-27T10:11:53.930Z,11.00
2018-03-27T10:14:21.488Z,11.00
2018-03-27T10:16:49.268Z,11.20
2018-03-27T10:19:16.837Z,11.30
2018-03-27T10:21:44.453Z,11.50
2018-03-27T10:24:12.003Z,11.70
2018-03-27T10:26:39.559Z,11.80
2018-03-27T10:29:07.127Z,11.90
2018-03-27T10:31:34.686Z,11.90
2018-03-27T10:34:02.267Z,12.00
2018-03-27T10:36:29.844Z,12.00
2018-03-27T10:38:57.389Z,12.00
2018-03-27T10:41:24.959Z,12.10
2018-03-27T10:43:52.520Z,12.10
2018-03-27T10:46:20.079Z,12.20
2018-03-27T10:48:47.666Z,12.30
2018-03-27T10:51:15.974Z,12.70
2018-03-27T10:53:44.301Z,12.60
2018-03-27T10:56:11.879Z,12.60
2018-03-27T10:58:40.207Z,12.70
2018-03-27T11:01:07.760Z,12.70
2018-03-27T11:03:35.329Z,12.80
2018-03-27T11:06:02.861Z,12.80
2018-03-27T11:08:30.414Z,12.70
2018-03-27T11:10:57.993Z,12.70
2018-03-27T11:13:25.571Z,12.60
2018-03-27T11:15:53.153Z,12.30
2018-03-27T11:18:20.707Z,12.30
2018-03-27T11:20:48.251Z,12.30
2018-03-27T11:23:15.817Z,12.10
2018-03-27T11:25:43.349Z,12.20
2018-03-27T11:28:10.940Z,12.30
2018-03-27T11:30:38.480Z,12.40
2018-03-27T11:33:06.027Z,12.50
2018-03-27T11:35:33.568Z,12.70
2018-03-27T11:38:01.108Z,12.60
2018-03-27T11:40:29.432Z,12.20
2018-03-27T11:42:56.986Z,12.20
2018-03-27T11:45:24.537Z,12.00
2018-03-27T11:47:52.080Z,12.00
2018-03-27T11:50:19.624Z,11.90
2018-03-27T11:52:47.952Z,11.90
2018-03-27T11:55:15.483Z,11.90
2018-03-27T11:57:43.024Z,12.00
2018-03-27T12:00:10.606Z,12.10
2018-03-27T12:02:38.152Z,12.20
2018-03-27T12:05:05.691Z,12.30
2018-03-27T12:07:34.018Z,12.50
2018-03-27T12:10:01.569Z,12.50
2018-03-27T12:12:29.125Z,12.50
2018-03-27T12:14:56.697Z,12.50
2018-03-27T12:17:24.266Z,12.50
2018-03-27T12:19:51.805Z,12.50
2018-03-27T12:22:19.366Z,12.60
2018-03-27T12:24:46.935Z,12.70
2018-03-27T12:27:14.461Z,12.60
2018-03-27T12:29:42.044Z,12.60
2018-03-27T12:32:09.592Z,12.60
2018-03-27T12:34:37.138Z,12.40
2018-03-27T12:37:04.710Z,12.30
2018-03-27T12:39:32.256Z,12.20
2018-03-27T12:41:59.803Z,12.10
2018-03-27T12:44:28.145Z,12.00
2018-03-27T12:46:55.696Z,12.00
2018-03-27T12:49:23.247Z,12.00
2018-03-27T12:51:50.825Z,12.00
2018-03-27T12:54:18.390Z,12.10
2018-03-27T12:56:45.921Z,12.10
2018-03-27T12:59:13.478Z,12.20
2018-03-27T13:01:41.006Z,12.20
2018-03-27T13:04:08.566Z,12.20
2018-03-27T13:06:36.162Z,12.10
2018-03-27T13:09:03.745Z,12.00
2018-03-27T13:11:31.277Z,11.90
2018-03-27T13:13:58.842Z,11.80
2018-03-27T13:16:26.413Z,11.60
2018-03-27T13:18:53.955Z,11.60
2018-03-27T13:21:21.543Z,11.40
2018-03-27T13:23:49.092Z,11.40
2018-03-27T13:26:16.673Z,11.40
2018-03-27T13:28:45.016Z,11.30
2018-03-27T13:31:12.568Z,11.30
2018-03-27T13:33:40.888Z,11.20
2018-03-27T13:36:09.233Z,11.20
2018-03-27T13:38:36.785Z,11.20
2018-03-27T13:41:04.332Z,11.10
2018-03-27T13:43:31.904Z,11.10
2018-03-27T13:45:59.465Z,11.00
2018-03-27T13:48:27.011Z,11.00
2018-03-27T13:50:54.590Z,10.90
2018-03-27T13:53:22.122Z,10.90
2018-03-27T13:55:49.663Z,10.80
2018-03-27T13:58:17.235Z,10.80
2018-03-27T14:00:44.790Z,10.70
2018-03-27T14:03:12.345Z,10.70
2018-03-27T14:05:39.932Z,10.70
2018-03-27T14:08:07.486Z,10.70
2018-03-27T14:10:35.028Z,10.70
2018-03-27T14:13:02.872Z,10.70
2018-03-27T14:15:30.409Z,10.70
2018-03-27T14:17:57.993Z,10.70
2018-03-27T14:20:26.323Z,10.80
2018-03-27T14:22:53.876Z,10.70
2018-03-27T14:25:21.414Z,10.80
2018-03-27T14:27:48.984Z,10.80
2018-03-27T14:30:16.542Z,10.80
2018-03-27T14:32:44.088Z,10.90
2018-03-27T14:35:11.648Z,10.90
2018-03-27T14:37:39.208Z,10.90
2018-03-27T14:40:07.610Z,10.90
2018-03-27T14:42:35.175Z,11.00
2018-03-27T14:45:02.741Z,11.00
2018-03-27T14:47:30.319Z,11.10
2018-03-27T14:49:57.881Z,11.10
2018-03-27T14:52:25.442Z,11.00
2018-03-27T14:54:53.768Z,11.00
2018-03-27T14:57:21.349Z,11.00
2018-03-27T14:59:50.689Z,10.90
2018-03-27T15:02:18.342Z,10.90
2018-03-27T15:04:46.731Z,10.80
2018-03-27T15:07:14.303Z,10.80
2018-03-27T15:09:42.600Z,10.70
2018-03-27T15:12:10.174Z,10.70
2018-03-27T15:14:37.710Z,10.70
2018-03-27T15:17:05.245Z,10.70
2018-03-27T15:19:33.584Z,10.70
2018-03-27T15:22:01.159Z,10.60
2018-03-27T15:24:28.731Z,10.60
2018-03-27T15:26:57.077Z,10.60
2018-03-27T15:29:24.627Z,10.50
2018-03-27T15:31:52.182Z,10.60
2018-03-27T15:34:19.761Z,10.60
2018-03-27T15:36:47.292Z,10.50
2018-03-27T15:39:14.866Z,10.60
2018-03-27T15:41:42.448Z,10.50
2018-03-27T15:44:09.997Z,10.50
2018-03-27T15:46:37.540Z,10.50
2018-03-27T15:49:05.101Z,10.50
2018-03-27T15:51:32.639Z,10.50
2018-03-27T15:54:00.181Z,10.40
2018-03-27T15:56:28.524Z,10.40
2018-03-27T15:58:56.053Z,10.30
2018-03-27T16:01:23.595Z,10.20
2018-03-27T16:03:51.169Z,10.20
2018-03-27T16:06:18.747Z,10.00
2018-03-27T16:08:46.292Z,9.90
2018-03-27T16:11:13.864Z,9.90
2018-03-27T16:13:42.184Z,9.80
2018-03-27T16:16:10.502Z,9.80
2018-03-27T16:18:38.821Z,9.80
2018-03-27T16:21:06.353Z,9.80
2018-03-27T16:23:33.910Z,9.70
2018-03-27T16:26:01.526Z,9.60
2018-03-27T16:28:29.813Z,9.40
2018-03-27T16:30:57.357Z,9.40
2018-03-27T16:33:25.693Z,9.40
2018-03-27T16:35:53.232Z,9.40
2018-03-27T16:38:20.790Z,9.40
2018-03-27T16:40:48.347Z,9.40
2018-03-27T16:43:15.892Z,9.40
2018-03-27T16:45:43.430Z,9.40
2018-03-27T16:48:11.765Z,9.40
2018-03-27T16:50:39.319Z,9.40
2018-03-27T16:53:06.851Z,9.50
2018-03-27T16:55:35.183Z,9.50
2018-03-27T16:58:02.736Z,9.50
2018-03-27T17:00:30.266Z,9.50
2018-03-27T17:02:57.842Z,9.40
2018-03-27T17:05:25.427Z,9.40
2018-03-27T17:07:52.977Z,9.30
2018-03-27T17:10:20.587Z,9.30
2018-03-27T17:12:48.113Z,9.30
2018-03-27T17:15:16.446Z,9.30
2018-03-27T17:17:44.011Z,9.30
2018-03-27T17:20:11.576Z,9.30
2018-03-27T17:22:39.163Z,9.20
2018-03-27T17:25:06.711Z,9.10
2018-03-27T17:27:34.243Z,9.00
2018-03-27T17:30:01.801Z,8.90
2018-03-27T17:32:29.368Z,8.80
2018-03-27T17:34:56.903Z,8.60
2018-03-27T17:37:24.439Z,8.60
2018-03-27T17:39:52.016Z,8.40
2018-03-27T17:42:19.568Z,8.40
2018-03-27T17:44:47.124Z,8.30
2018-03-27T17:47:14.693Z,8.40
2018-03-27T17:49:42.231Z,8.30
2018-03-27T17:52:10.531Z,8.20
2018-03-27T17:54:38.091Z,8.20
2018-03-27T17:57:05.648Z,8.20
2018-03-27T17:59:33.204Z,8.20
2018-03-27T18:02:00.786Z,8.10
2018-03-27T18:04:28.317Z,8.10
2018-03-27T18:06:55.853Z,8.10
2018-03-27T18:09:24.171Z,8.00
2018-03-27T18:11:51.806Z,8.00
2018-03-27T18:14:19.382Z,8.00
2018-03-27T18:16:46.960Z,7.90
2018-03-27T18:19:14.497Z,7.90
2018-03-27T18:21:42.044Z,7.80
2018-03-27T18:24:09.621Z,7.80
2018-03-27T18:26:37.179Z,7.70
2018-03-27T18:29:04.734Z,7.70
2018-03-27T18:31:32.299Z,7.60
2018-03-27T18:33:59.821Z,7.60
2018-03-27T18:36:28.143Z,7.50
2018-03-27T18:38:55.720Z,7.50
2018-03-27T18:41:23.258Z,7.50
2018-03-27T18:43:50.786Z,7.50
2018-03-27T18:46:19.119Z,7.50
2018-03-27T18:48:46.671Z,7.50
2018-03-27T18:51:14.222Z,7.50
2018-03-27T18:53:41.822Z,7.50
2018-03-27T18:56:10.137Z,7.50
2018-03-27T18:58:37.702Z,7.50
2018-03-27T19:01:05.268Z,7.50
2018-03-27T19:03:32.826Z,7.60
2018-03-27T19:06:00.394Z,7.50
2018-03-27T19:08:28.036Z,7.60
2018-03-27T19:10:55.601Z,7.60
2018-03-27T19:13:23.168Z,7.60
2018-03-27T19:15:50.739Z,7.70
2018-03-27T19:18:18.300Z,7.60
2018-03-27T19:20:45.843Z,7.60
2018-03-27T19:23:13.446Z,7.70
2018-03-27T19:25:40.971Z,7.70
2018-03-27T19:28:08.510Z,7.70
2018-03-27T19:30:36.091Z,7.70
2018-03-27T19:33:04.071Z,7.70
2018-03-27T19:35:31.619Z,7.70
2018-03-27T19:37:59.188Z,7.70
2018-03-27T19:40:26.709Z,7.70
2018-03-27T19:42:54.260Z,7.70
2018-03-27T19:45:21.836Z,7.70
2018-03-27T19:47:49.381Z,7.60
2018-03-27T19:50:16.924Z,7.60
2018-03-27T19:52:45.261Z,7.60
2018-03-27T19:55:12.791Z,7.60
2018-03-27T19:57:40.345Z,7.50
2018-03-27T20:00:08.724Z,7.50
2018-03-27T20:02:36.264Z,7.40
2018-03-27T20:05:04.568Z,7.40
2018-03-27T20:07:32.126Z,7.40
2018-03-27T20:09:59.695Z,7.40
2018-03-27T20:12:27.234Z,7.40
2018-03-27T20:14:54.821Z,7.40
2018-03-27T20:17:22.365Z,7.50
2018-03-27T20:19:49.894Z,7.40
2018-03-27T20:22:18.232Z,7.40
2018-03-27T20:24:45.799Z,7.40
2018-03-27T20:27:13.347Z,7.40
2018-03-27T20:29:40.905Z,7.40
2018-03-27T20:32:08.449Z,7.40
2018-03-27T20:34:36.009Z,7.40
2018-03-27T20:37:03.598Z,7.50
2018-03-27T20:39:31.163Z,7.60
2018-03-27T20:41:58.707Z,7.60
2018-03-27T20:44:26.268Z,7.60
2018-03-27T20:46:53.816Z,7.70
2018-03-27T20:49:21.345Z,7.70
2018-03-27T20:51:48.905Z,7.60
2018-03-27T20:54:16.479Z,7.70
2018-03-27T20:56:44.039Z,7.60
2018-03-27T20:59:11.608Z,7.50
2018-03-27T21:01:39.161Z,7.60
2018-03-27T21:04:07.453Z,7.60
2018-03-27T21:06:35.029Z,7.60
2018-03-27T21:09:02.596Z,7.70
2018-03-27T21:11:30.897Z,7.70
2018-03-27T21:13:59.228Z,7.70
2018-03-27T21:16:27.532Z,7.70
2018-03-27T21:18:55.869Z,7.60
2018-03-27T21:21:23.456Z,7.60
2018-03-27T21:23:51.010Z,7.60
2018-03-27T21:26:18.562Z,7.60
2018-03-27T21:28:46.130Z,7.50
2018-03-27T21:31:13.671Z,7.50
2018-03-27T21:33:41.232Z,7.50
2018-03-27T21:36:08.913Z,7.50
2018-03-27T21:38:36.470Z,7.30
2018-03-27T21:41:04.020Z,7.30
2018-03-27T21:43:31.590Z,7.30
2018-03-27T21:45:59.140Z,7.30
2018-03-27T21:48:26.776Z,7.30
2018-03-27T21:50:54.330Z,7.30
2018-03-27T21:53:21.928Z,7.30
2018-03-27T21:55:49.492Z,7.30
2018-03-27T21:58:17.107Z,7.30
2018-03-27T22:00:44.668Z,7.30
2018-03-27T22:03:12.201Z,7.30
2018-03-27T22:05:39.795Z,7.30
2018-03-27T22:08:07.329Z,7.30
2018-03-27T22:10:34.889Z,7.30
2018-03-27T22:13:02.456Z,7.30
2018-03-27T22:15:30.037Z,7.20
2018-03-27T22:17:57.597Z,7.30
2018-03-27T22:20:25.167Z,7.30
2018-03-27T22:22:52.727Z,7.30
2018-03-27T22:25:21.771Z,7.40
2018-03-27T22:27:49.326Z,7.40
2018-03-27T22:30:17.645Z,7.30
2018-03-27T22:32:45.188Z,7.30
2018-03-27T22:35:12.762Z,7.30
2018-03-27T22:37:40.318Z,7.20
2018-03-27T22:40:07.869Z,7.20
2018-03-27T22:42:35.442Z,7.20
2018-03-27T22:45:02.987Z,7.20
2018-03-27T22:47:30.575Z,7.20
2018-03-27T22:49:58.145Z,7.20
2018-03-27T22:52:25.704Z,7.20
2018-03-27T22:54:53.239Z,7.20
2018-03-27T22:57:20.813Z,7.20
2018-03-27T22:59:48.381Z,7.30
2018-03-27T23:02:15.927Z,7.20
2018-03-27T23:04:43.499Z,7.30
2018-03-27T23:07:11.067Z,7.30
2018-03-27T23:09:38.616Z,7.30
2018-03-27T23:12:06.166Z,7.30
2018-03-27T23:14:33.699Z,7.30
2018-03-27T23:17:01.233Z,7.30
2018-03-27T23:19:28.828Z,7.30
2018-03-27T23:21:56.387Z,7.40
2018-03-27T23:24:23.925Z,7.40
2018-03-27T23:26:51.505Z,7.40
2018-03-27T23:29:19.057Z,7.40
2018-03-27T23:31:46.594Z,7.40
2018-03-27T23:34:14.177Z,7.40
2018-03-27T23:36:41.724Z,7.30
2018-03-27T23:39:09.319Z,7.40
2018-03-27T23:41:36.875Z,7.30
2018-03-27T23:44:04.434Z,7.30
2018-03-27T23:46:31.992Z,7.40
2018-03-27T23:48:59.551Z,7.40
2018-03-27T23:51:27.114Z,7.40
2018-03-27T23:53:54.660Z,7.40
2018-03-27T23:56:22.206Z,7.40
2018-03-27T23:58:49.740Z,7.30
